Time;durP1;ratioP1;P1;durP2;ratioP2;P2;SDS_P1;SDS_P2;PMS_P1;PMS_P2;Temp;Humidity;BMP_temperature;BMP_pressure;BME280_temperature;BME280_humidity;BME280_pressure;Samples;Min_cycle;Max_cycle;Signal;HPM_P1;HPM_P2
2023/06/29 00:02:25;;;;;;;2.40;2.20;;;;;;;;;;5023830;28;20040;-66
2023/06/29 00:04:55;;;;;;;2.13;2.03;;;;;;;;;;5036983;28;20060;-66
2023/06/29 00:07:24;;;;;;;2.10;2.00;;;;;;;;;;5038500;28;20049;-66
2023/06/29 00:09:52;;;;;;;2.63;2.42;;;;;;;;;;5037568;28;20358;-66
2023/06/29 00:12:18;;;;;;;2.80;1.80;;;;;;;;;;5039401;28;20051;-66
2023/06/29 00:14:44;;;;;;;2.63;2.42;;;;;;;;;;5039921;28;20049;-66
2023/06/29 00:17:14;;;;;;;2.78;2.58;;;;;;;;;;5033926;28;20049;-66
2023/06/29 00:19:41;;;;;;;2.47;2.28;;;;;;;;;;5035978;28;20407;-66
2023/06/29 00:22:08;;;;;;;3.00;2.70;;;;;;;;;;5035765;28;20052;-66
2023/06/29 00:24:42;;;;;;;1.95;1.85;;;;;;;;;;5033182;28;20405;-66
2023/06/29 00:27:08;;;;;;;1.83;1.73;;;;;;;;;;5034353;28;20124;-66
2023/06/29 00:29:35;;;;;;;1.65;1.55;;;;;;;;;;5030995;28;20097;-66
2023/06/29 00:32:01;;;;;;;1.52;1.42;;;;;;;;;;5038882;28;20041;-66
2023/06/29 00:34:27;;;;;;;1.65;1.55;;;;;;;;;;5034655;28;20457;-66
2023/06/29 00:36:53;;;;;;;1.70;1.60;;;;;;;;;;5038922;28;20044;-66
2023/06/29 00:39:19;;;;;;;2.10;1.90;;;;;;;;;;5037490;28;20037;-66
2023/06/29 00:41:52;;;;;;;2.22;2.13;;;;;;;;;;5037146;28;20091;-66
2023/06/29 00:44:18;;;;;;;1.90;1.80;;;;;;;;;;5037327;28;20037;-66
2023/06/29 00:46:44;;;;;;;1.92;1.70;;;;;;;;;;5041999;28;20547;-66
2023/06/29 00:49:10;;;;;;;1.45;1.35;;;;;;;;;;5036576;28;20079;-66
2023/06/29 00:51:36;;;;;;;1.50;1.40;;;;;;;;;;5035732;28;20037;-66
2023/06/29 00:54:02;;;;;;;1.60;1.50;;;;;;;;;;5034447;28;20037;-66
2023/06/29 00:56:30;;;;;;;2.13;2.03;;;;;;;;;;5037524;28;20044;-66
2023/06/29 00:58:57;;;;;;;2.63;2.42;;;;;;;;;;5034259;28;20037;-66
2023/06/29 01:01:22;;;;;;;2.45;2.25;;;;;;;;;;5033532;28;20037;-66
2023/06/29 01:03:49;;;;;;;2.35;2.15;;;;;;;;;;5039724;28;20087;-66
2023/06/29 01:06:16;;;;;;;2.53;2.33;;;;;;;;;;5033688;28;20037;-66
2023/06/29 01:08:45;;;;;;;2.42;2.22;;;;;;;;;;5035797;28;20121;-66
2023/06/29 01:11:11;;;;;;;3.58;2.90;;;;;;;;;;5030985;28;20607;-66
2023/06/29 01:13:38;;;;;;;2.03;1.92;;;;;;;;;;5037865;28;20037;-66
2023/06/29 01:16:05;;;;;;;3.22;2.95;;;;;;;;;;5034133;28;20125;-66
2023/06/29 01:18:31;;;;;;;2.45;2.25;;;;;;;;;;5035416;28;20049;-66
2023/06/29 01:20:59;;;;;;;2.28;2.10;;;;;;;;;;5034167;28;20103;-66
2023/06/29 01:23:25;;;;;;;2.40;2.20;;;;;;;;;;5034544;28;20044;-66
2023/06/29 01:25:52;;;;;;;2.50;2.30;;;;;;;;;;5035201;28;20049;-66
2023/06/29 01:28:18;;;;;;;2.38;2.17;;;;;;;;;;5038458;28;20477;-66
2023/06/29 01:30:51;;;;;;;2.72;2.53;;;;;;;;;;5035140;28;20041;-66
2023/06/29 01:33:18;;;;;;;2.83;2.63;;;;;;;;;;5033734;28;20034;-66
2023/06/29 01:35:44;;;;;;;2.65;2.42;;;;;;;;;;5031941;28;20048;-66
2023/06/29 01:38:20;;;;;;;2.85;2.58;;;;;;;;;;5034691;28;20033;-66
2023/06/29 01:40:47;;;;;;;3.40;3.10;;;;;;;;;;5033375;28;20053;-66
2023/06/29 01:43:14;;;;;;;3.08;2.85;;;;;;;;;;5033417;28;20041;-66
2023/06/29 01:45:41;;;;;;;2.78;2.58;;;;;;;;;;5032691;28;20052;-66
2023/06/29 01:48:07;;;;;;;2.95;2.75;;;;;;;;;;5032524;28;20072;-66
2023/06/29 01:50:33;;;;;;;2.97;2.78;;;;;;;;;;5035633;28;20076;-66
2023/06/29 01:52:59;;;;;;;3.70;3.40;;;;;;;;;;5035880;28;20116;-66
2023/06/29 01:55:25;;;;;;;3.45;3.22;;;;;;;;;;5034344;28;20040;-66
2023/06/29 01:57:51;;;;;;;4.10;3.80;;;;;;;;;;5036597;28;20052;-66
2023/06/29 02:00:17;;;;;;;4.20;3.88;;;;;;;;;;5037012;28;20392;-66
2023/06/29 02:02:43;;;;;;;3.25;3.05;;;;;;;;;;5031498;28;20045;-66
2023/06/29 02:05:09;;;;;;;2.75;2.42;;;;;;;;;;5037404;28;20040;-66
2023/06/29 02:07:35;;;;;;;3.33;3.03;;;;;;;;;;5035374;28;20037;-66
2023/06/29 02:10:01;;;;;;;3.45;3.15;;;;;;;;;;5032088;28;20494;-66
2023/06/29 02:12:27;;;;;;;2.70;2.50;;;;;;;;;;5035932;28;20061;-66
2023/06/29 02:14:53;;;;;;;4.78;4.38;;;;;;;;;;5033386;28;20135;-66
2023/06/29 02:17:19;;;;;;;3.28;3.03;;;;;;;;;;5032968;28;20037;-66
2023/06/29 02:19:45;;;;;;;5.03;3.92;;;;;;;;;;5032579;28;20123;-66
2023/06/29 02:22:11;;;;;;;5.45;4.97;;;;;;;;;;5033013;28;20072;-66
2023/06/29 02:24:37;;;;;;;4.20;3.90;;;;;;;;;;5035555;28;20572;-66
2023/06/29 02:27:03;;;;;;;3.47;3.17;;;;;;;;;;5036699;28;20095;-66
2023/06/29 02:29:30;;;;;;;5.93;5.40;;;;;;;;;;5032115;28;20493;-66
2023/06/29 02:31:56;;;;;;;6.78;5.82;;;;;;;;;;5029715;28;20148;-66
2023/06/29 02:34:22;;;;;;;5.03;4.63;;;;;;;;;;5031208;28;20557;-67
2023/06/29 02:36:48;;;;;;;5.63;5.13;;;;;;;;;;5029600;28;20551;-66
2023/06/29 02:39:14;;;;;;;5.82;5.28;;;;;;;;;;5035782;28;20045;-66
2023/06/29 02:41:40;;;;;;;6.30;5.72;;;;;;;;;;5037518;28;20053;-66
2023/06/29 02:44:06;;;;;;;6.80;6.07;;;;;;;;;;5033590;28;20819;-66
2023/06/29 02:46:32;;;;;;;6.15;5.55;;;;;;;;;;5033894;28;20529;-66
2023/06/29 02:48:58;;;;;;;5.90;5.40;;;;;;;;;;5035842;28;20045;-66
2023/06/29 02:51:24;;;;;;;6.75;6.00;;;;;;;;;;5038190;28;20037;-66
2023/06/29 02:53:50;;;;;;;7.10;6.35;;;;;;;;;;5035340;28;20045;-66
2023/06/29 02:56:16;;;;;;;6.07;5.47;;;;;;;;;;5032395;28;20056;-66
2023/06/29 02:58:42;;;;;;;5.78;5.28;;;;;;;;;;5037423;28;20041;-66
2023/06/29 03:01:08;;;;;;;7.05;6.40;;;;;;;;;;5037721;28;20048;-66
2023/06/29 03:03:34;;;;;;;7.90;7.20;;;;;;;;;;5037263;28;20045;-66
2023/06/29 03:06:00;;;;;;;6.35;5.85;;;;;;;;;;5035751;28;20044;-66
2023/06/29 03:08:26;;;;;;;5.22;4.82;;;;;;;;;;5035629;28;20048;-66
2023/06/29 03:10:52;;;;;;;4.97;4.57;;;;;;;;;;5035434;28;20449;-66
2023/06/29 03:13:18;;;;;;;8.98;6.88;;;;;;;;;;5035568;28;20037;-66
2023/06/29 03:15:44;;;;;;;6.38;5.78;;;;;;;;;;5033710;28;20033;-66
2023/06/29 03:18:10;;;;;;;5.53;5.13;;;;;;;;;;5036920;28;20578;-66
2023/06/29 03:20:36;;;;;;;6.70;6.00;;;;;;;;;;5036087;28;20102;-66
2023/06/29 03:23:02;;;;;;;5.80;5.20;;;;;;;;;;5035604;28;20045;-66
2023/06/29 03:25:28;;;;;;;5.32;4.82;;;;;;;;;;5035187;28;20044;-66
2023/06/29 03:27:54;;;;;;;4.45;4.05;;;;;;;;;;5035943;28;20047;-66
2023/06/29 03:30:20;;;;;;;3.65;3.38;;;;;;;;;;5040886;28;20413;-66
2023/06/29 03:32:46;;;;;;;4.25;3.95;;;;;;;;;;5033469;28;20087;-66
2023/06/29 03:35:12;;;;;;;4.53;4.07;;;;;;;;;;5033624;28;20045;-66
2023/06/29 03:37:38;;;;;;;4.57;3.92;;;;;;;;;;5036519;28;20065;-66
2023/06/29 03:40:05;;;;;;;4.10;3.70;;;;;;;;;;5036222;28;20045;-66
2023/06/29 03:42:31;;;;;;;3.75;3.40;;;;;;;;;;5038177;28;20072;-66
2023/06/29 03:44:57;;;;;;;3.58;3.28;;;;;;;;;;5037419;28;20453;-66
2023/06/29 03:47:23;;;;;;;3.33;3.03;;;;;;;;;;5040941;28;20083;-66
2023/06/29 03:49:49;;;;;;;2.70;2.50;;;;;;;;;;5035394;28;20077;-66
2023/06/29 03:52:15;;;;;;;3.65;3.35;;;;;;;;;;5035176;28;20090;-66
2023/06/29 03:54:41;;;;;;;4.28;3.33;;;;;;;;;;5034126;28;20052;-66
2023/06/29 03:57:07;;;;;;;3.42;3.13;;;;;;;;;;5037831;28;20041;-66
2023/06/29 03:59:33;;;;;;;2.80;2.60;;;;;;;;;;5036613;28;20092;-66
2023/06/29 04:01:59;;;;;;;2.88;2.65;;;;;;;;;;5036783;28;20059;-66
2023/06/29 04:04:25;;;;;;;2.88;2.67;;;;;;;;;;5037607;28;20116;-66
2023/06/29 04:06:51;;;;;;;2.85;2.63;;;;;;;;;;5036503;28;20784;-66
2023/06/29 04:09:17;;;;;;;3.55;3.25;;;;;;;;;;5034483;28;20056;-66
2023/06/29 04:11:43;;;;;;;3.85;3.42;;;;;;;;;;5035231;28;20093;-66
2023/06/29 04:14:09;;;;;;;3.47;3.17;;;;;;;;;;5034393;28;20080;-66
2023/06/29 04:16:35;;;;;;;2.58;2.38;;;;;;;;;;5034778;28;20033;-66
2023/06/29 04:19:01;;;;;;;2.88;2.67;;;;;;;;;;5036683;28;20045;-66
2023/06/29 04:21:27;;;;;;;3.00;2.80;;;;;;;;;;5035061;28;20054;-66
2023/06/29 04:23:53;;;;;;;2.92;2.72;;;;;;;;;;5039368;28;20056;-66
2023/06/29 04:26:21;;;;;;;3.45;3.15;;;;;;;;;;5037789;28;20059;-66
2023/06/29 04:28:47;;;;;;;2.72;2.53;;;;;;;;;;5036655;28;20041;-66
2023/06/29 04:31:13;;;;;;;3.28;2.97;;;;;;;;;;5038937;28;20615;-66
2023/06/29 04:33:39;;;;;;;3.05;2.85;;;;;;;;;;5038172;28;20045;-66
2023/06/29 04:36:05;;;;;;;3.78;3.47;;;;;;;;;;5039443;28;20037;-66
2023/06/29 04:38:31;;;;;;;3.17;2.97;;;;;;;;;;5036673;28;20041;-66
2023/06/29 04:41:03;;;;;;;3.63;3.33;;;;;;;;;;5035652;28;20940;-66
2023/06/29 04:43:33;;;;;;;3.03;2.83;;;;;;;;;;5034132;28;20159;-66
2023/06/29 04:46:03;;;;;;;4.20;3.80;;;;;;;;;;5034994;28;20037;-66
2023/06/29 04:48:37;;;;;;;3.63;3.33;;;;;;;;;;5039828;28;20041;-66
2023/06/29 04:51:05;;;;;;;3.53;3.22;;;;;;;;;;5035646;28;20064;-66
2023/06/29 04:53:37;;;;;;;2.95;2.75;;;;;;;;;;5036367;28;20041;-66
2023/06/29 04:56:03;;;;;;;4.03;3.72;;;;;;;;;;5036867;28;20048;-66
2023/06/29 04:58:29;;;;;;;4.72;4.28;;;;;;;;;;5033937;28;20033;-66
2023/06/29 05:00:55;;;;;;;4.88;4.47;;;;;;;;;;5036570;28;20052;-66
2023/06/29 05:03:21;;;;;;;4.22;3.83;;;;;;;;;;5039222;28;20073;-66
2023/06/29 05:05:47;;;;;;;4.32;3.92;;;;;;;;;;5036420;28;20638;-66
2023/06/29 05:08:13;;;;;;;4.13;3.72;;;;;;;;;;5035243;28;20033;-66
2023/06/29 05:10:39;;;;;;;4.22;3.83;;;;;;;;;;5034057;28;20075;-66
2023/06/29 05:13:05;;;;;;;4.68;4.28;;;;;;;;;;5037888;28;20103;-66
2023/06/29 05:15:31;;;;;;;4.57;4.18;;;;;;;;;;5036832;28;20041;-66
2023/06/29 05:17:57;;;;;;;4.00;3.70;;;;;;;;;;5036656;28;20063;-66
2023/06/29 05:20:23;;;;;;;3.97;3.67;;;;;;;;;;5037623;28;20072;-66
2023/06/29 05:22:49;;;;;;;5.35;4.88;;;;;;;;;;5036974;28;20122;-66
2023/06/29 05:25:15;;;;;;;4.85;4.45;;;;;;;;;;5035178;28;20044;-66
2023/06/29 05:27:42;;;;;;;5.18;4.78;;;;;;;;;;5037212;28;20052;-66
2023/06/29 05:30:08;;;;;;;6.30;5.70;;;;;;;;;;5032792;28;20041;-66
2023/06/29 05:32:35;;;;;;;7.70;6.60;;;;;;;;;;5038310;28;20413;-66
2023/06/29 05:35:01;;;;;;;6.85;6.22;;;;;;;;;;5039657;28;20040;-66
2023/06/29 05:37:29;;;;;;;6.50;5.90;;;;;;;;;;5031876;28;20056;-66
2023/06/29 05:39:56;;;;;;;10.73;9.63;;;;;;;;;;5034580;28;20116;-66
2023/06/29 05:42:22;;;;;;;10.55;8.68;;;;;;;;;;5031973;28;20586;-66
2023/06/29 05:44:48;;;;;;;11.10;10.10;;;;;;;;;;5033801;28;20041;-66
2023/06/29 05:47:15;;;;;;;9.13;8.25;;;;;;;;;;5031638;28;20049;-66
2023/06/29 05:49:41;;;;;;;11.70;10.27;;;;;;;;;;5032665;28;20096;-66
2023/06/29 05:52:07;;;;;;;8.85;8.05;;;;;;;;;;5032908;28;20041;-66
2023/06/29 05:54:33;;;;;;;9.15;8.27;;;;;;;;;;5036050;28;20078;-66
2023/06/29 05:56:59;;;;;;;7.80;7.10;;;;;;;;;;5033029;28;20045;-66
2023/06/29 05:59:25;;;;;;;7.47;6.65;;;;;;;;;;5033078;28;20048;-66
2023/06/29 06:01:51;;;;;;;9.00;8.10;;;;;;;;;;5034728;28;20049;-66
2023/06/29 06:04:17;;;;;;;8.77;7.88;;;;;;;;;;5036451;28;20041;-66
2023/06/29 06:06:43;;;;;;;9.30;8.05;;;;;;;;;;5035147;28;20072;-66
2023/06/29 06:09:09;;;;;;;7.90;7.20;;;;;;;;;;5033091;28;20500;-66
2023/06/29 06:11:35;;;;;;;5.70;5.22;;;;;;;;;;5032811;28;20077;-66
2023/06/29 06:14:01;;;;;;;7.88;7.18;;;;;;;;;;5034330;28;20048;-66
2023/06/29 06:16:27;;;;;;;7.35;6.65;;;;;;;;;;5032216;28;20437;-66
2023/06/29 06:18:53;;;;;;;10.10;8.63;;;;;;;;;;5032663;28;20184;-66
2023/06/29 06:21:19;;;;;;;7.90;6.97;;;;;;;;;;5031599;28;20066;-66
2023/06/29 06:23:46;;;;;;;7.95;7.22;;;;;;;;;;5033583;28;20052;-66
2023/06/29 06:26:12;;;;;;;7.00;6.30;;;;;;;;;;5028917;28;20413;-66
2023/06/29 06:28:38;;;;;;;5.88;5.32;;;;;;;;;;5036114;28;20497;-66
2023/06/29 06:31:05;;;;;;;6.32;5.82;;;;;;;;;;5039135;28;20508;-66
2023/06/29 06:33:32;;;;;;;7.10;6.40;;;;;;;;;;5037839;28;20116;-66
2023/06/29 06:35:59;;;;;;;6.03;5.53;;;;;;;;;;5032964;28;20116;-66
2023/06/29 06:38:25;;;;;;;5.78;5.28;;;;;;;;;;5038164;28;20040;-66
2023/06/29 06:40:51;;;;;;;6.53;5.90;;;;;;;;;;5040439;28;20103;-66
2023/06/29 06:43:17;;;;;;;8.48;7.25;;;;;;;;;;5037137;28;20056;-66
2023/06/29 06:45:44;;;;;;;6.70;5.90;;;;;;;;;;5040013;28;20398;-66
2023/06/29 06:48:10;;;;;;;7.10;6.03;;;;;;;;;;5040316;28;20043;-66
2023/06/29 06:50:36;;;;;;;6.70;6.10;;;;;;;;;;5040421;28;20060;-66
2023/06/29 06:53:02;;;;;;;9.52;7.82;;;;;;;;;;5037492;28;20052;-66
2023/06/29 06:55:29;;;;;;;10.50;9.10;;;;;;;;;;5037443;28;20053;-66
2023/06/29 06:57:55;;;;;;;11.05;9.82;;;;;;;;;;5035046;28;20045;-66
2023/06/29 07:00:22;;;;;;;10.35;9.35;;;;;;;;;;5036422;28;20036;-66
2023/06/29 07:02:48;;;;;;;11.85;10.55;;;;;;;;;;5034559;28;20091;-66
2023/06/29 07:05:14;;;;;;;12.27;10.82;;;;;;;;;;5038436;28;20094;-66
2023/06/29 07:07:41;;;;;;;9.40;8.50;;;;;;;;;;5039590;28;20052;-66
2023/06/29 07:10:07;;;;;;;12.55;10.55;;;;;;;;;;5036511;28;20081;-66
2023/06/29 07:12:33;;;;;;;10.75;8.95;;;;;;;;;;5037788;28;20068;-66
2023/06/29 07:14:59;;;;;;;9.30;8.40;;;;;;;;;;5036312;28;20497;-66
2023/06/29 07:17:26;;;;;;;8.10;7.30;;;;;;;;;;5039349;28;20555;-66
2023/06/29 07:19:52;;;;;;;7.72;6.93;;;;;;;;;;5044788;28;20471;-66
2023/06/29 07:22:18;;;;;;;6.82;5.85;;;;;;;;;;5036286;28;20431;-65
2023/06/29 07:24:44;;;;;;;8.00;7.30;;;;;;;;;;5036721;28;20060;-66
2023/06/29 07:27:10;;;;;;;14.00;10.38;;;;;;;;;;5045642;28;20432;-65
2023/06/29 07:29:36;;;;;;;11.13;9.98;;;;;;;;;;5038404;28;20036;-69
2023/06/29 07:32:03;;;;;;;9.45;8.45;;;;;;;;;;5042752;28;20448;-67
2023/06/29 07:34:29;;;;;;;14.27;12.43;;;;;;;;;;5040587;28;20033;-64
2023/06/29 07:36:55;;;;;;;12.20;10.48;;;;;;;;;;5031573;28;20549;-65
2023/06/29 07:39:21;;;;;;;10.30;8.48;;;;;;;;;;5044692;28;20037;-65
2023/06/29 07:41:48;;;;;;;9.73;8.70;;;;;;;;;;5043345;28;20049;-66
2023/06/29 07:44:14;;;;;;;14.05;10.98;;;;;;;;;;5032606;28;20455;-66
2023/06/29 07:46:40;;;;;;;12.50;11.20;;;;;;;;;;5040640;28;20500;-66
2023/06/29 07:49:06;;;;;;;11.88;10.45;;;;;;;;;;5044638;28;20094;-66
2023/06/29 07:51:33;;;;;;;11.55;9.30;;;;;;;;;;5039209;28;20524;-66
2023/06/29 07:54:00;;;;;;;9.05;8.15;;;;;;;;;;5035405;28;20060;-66
2023/06/29 07:56:28;;;;;;;7.60;6.88;;;;;;;;;;5043152;28;20873;-66
2023/06/29 07:58:54;;;;;;;8.23;7.43;;;;;;;;;;5041660;28;20040;-66
2023/06/29 08:01:20;;;;;;;10.75;8.48;;;;;;;;;;5038587;28;20484;-66
2023/06/29 08:03:46;;;;;;;9.68;8.48;;;;;;;;;;5034922;28;20525;-66
2023/06/29 08:06:12;;;;;;;9.45;8.38;;;;;;;;;;5034215;28;20041;-65
2023/06/29 08:08:38;;;;;;;12.40;11.10;;;;;;;;;;5035030;28;20045;-66
2023/06/29 08:11:04;;;;;;;15.18;12.55;;;;;;;;;;5041787;28;20533;-66
2023/06/29 08:13:30;;;;;;;13.63;11.38;;;;;;;;;;5034040;28;20511;-66
2023/06/29 08:15:56;;;;;;;16.98;11.88;;;;;;;;;;5030139;28;20052;-65
2023/06/29 08:18:22;;;;;;;16.50;12.75;;;;;;;;;;5038924;28;20064;-65
2023/06/29 08:20:48;;;;;;;14.35;11.68;;;;;;;;;;5038140;28;20041;-65
2023/06/29 08:23:15;;;;;;;14.88;13.02;;;;;;;;;;5037549;28;20114;-65
2023/06/29 08:25:41;;;;;;;18.15;15.00;;;;;;;;;;5043365;28;20045;-65
2023/06/29 08:28:07;;;;;;;17.10;13.77;;;;;;;;;;5041566;28;20084;-66
2023/06/29 08:30:33;;;;;;;13.98;12.35;;;;;;;;;;5035300;28;20099;-65
2023/06/29 08:32:59;;;;;;;13.10;11.18;;;;;;;;;;5036627;28;20049;-65
2023/06/29 08:35:25;;;;;;;15.63;13.07;;;;;;;;;;5038688;28;20493;-65
2023/06/29 08:37:51;;;;;;;12.50;11.30;;;;;;;;;;5045729;28;20120;-65
2023/06/29 08:40:22;;;;;;;14.13;12.52;;;;;;;;;;5040270;28;20116;-65
2023/06/29 08:42:49;;;;;;;13.93;11.65;;;;;;;;;;5029583;28;20041;-65
2023/06/29 08:45:15;;;;;;;11.80;10.13;;;;;;;;;;5025847;28;20052;-68
2023/06/29 08:47:42;;;;;;;10.35;8.88;;;;;;;;;;5033664;28;20080;-68
2023/06/29 08:50:09;;;;;;;13.23;11.93;;;;;;;;;;5050130;28;20087;-68
2023/06/29 08:52:35;;;;;;;10.50;9.48;;;;;;;;;;5028119;28;20037;-68
2023/06/29 08:55:02;;;;;;;9.68;8.77;;;;;;;;;;5028842;28;20205;-69
2023/06/29 08:57:31;;;;;;;12.07;10.90;;;;;;;;;;5035067;28;20060;-69
2023/06/29 08:59:58;;;;;;;11.88;10.68;;;;;;;;;;5028064;28;20064;-69
2023/06/29 09:02:24;;;;;;;10.43;9.30;;;;;;;;;;5031773;28;20033;-69
2023/06/29 09:04:50;;;;;;;14.30;12.55;;;;;;;;;;5029393;28;20045;-69
2023/06/29 09:07:16;;;;;;;13.13;11.68;;;;;;;;;;5031678;28;20037;-69
2023/06/29 09:09:43;;;;;;;14.48;12.98;;;;;;;;;;5015415;28;20061;-69
2023/06/29 09:12:12;;;;;;;12.15;11.00;;;;;;;;;;5035860;28;20076;-69
2023/06/29 09:14:44;;;;;;;14.70;12.80;;;;;;;;;;5027833;28;20045;-69
2023/06/29 09:17:17;;;;;;;18.55;15.60;;;;;;;;;;5028724;28;20513;-69
2023/06/29 09:19:54;;;;;;;14.57;13.02;;;;;;;;;;5028091;28;20044;-69
2023/06/29 09:22:21;;;;;;;12.75;11.43;;;;;;;;;;5030869;28;20057;-69
2023/06/29 09:24:47;;;;;;;14.88;13.43;;;;;;;;;;5030237;28;20449;-69
2023/06/29 09:27:13;;;;;;;14.95;13.18;;;;;;;;;;5029480;28;20394;-69
2023/06/29 09:29:40;;;;;;;14.68;13.13;;;;;;;;;;5030590;28;20400;-69
2023/06/29 09:32:06;;;;;;;14.30;12.63;;;;;;;;;;5026634;28;20049;-69
2023/06/29 09:34:32;;;;;;;13.32;11.93;;;;;;;;;;5029734;28;20112;-69
2023/06/29 09:36:58;;;;;;;14.32;12.35;;;;;;;;;;5024139;28;20073;-69
2023/06/29 09:39:26;;;;;;;13.95;12.55;;;;;;;;;;5025882;28;20037;-69
2023/06/29 09:41:54;;;;;;;14.70;12.15;;;;;;;;;;5034477;28;20084;-69
2023/06/29 09:44:20;;;;;;;12.73;11.50;;;;;;;;;;5041220;28;20094;-69
2023/06/29 09:46:47;;;;;;;15.32;13.60;;;;;;;;;;5042101;28;20397;-69
2023/06/29 09:49:14;;;;;;;12.65;11.35;;;;;;;;;;5035977;28;20040;-68
2023/06/29 09:51:40;;;;;;;11.95;10.75;;;;;;;;;;5034276;28;20312;-63
2023/06/29 09:54:10;;;;;;;11.75;10.65;;;;;;;;;;5041711;28;20048;-68
2023/06/29 09:56:37;;;;;;;12.70;11.50;;;;;;;;;;5033422;28;20041;-68
2023/06/29 09:59:04;;;;;;;16.65;14.50;;;;;;;;;;5043694;28;20404;-68
2023/06/29 10:01:30;;;;;;;15.85;14.25;;;;;;;;;;5037187;28;20051;-69
2023/06/29 10:03:56;;;;;;;16.50;14.27;;;;;;;;;;5035068;28;20045;-69
2023/06/29 10:06:26;;;;;;;14.25;12.68;;;;;;;;;;5042351;28;20052;-69
2023/06/29 10:08:58;;;;;;;10.60;9.43;;;;;;;;;;5028145;28;20457;-69
2023/06/29 10:11:27;;;;;;;10.43;9.43;;;;;;;;;;5023487;28;20057;-69
2023/06/29 10:13:55;;;;;;;15.38;13.82;;;;;;;;;;5025957;28;20052;-69
2023/06/29 10:16:23;;;;;;;12.43;11.13;;;;;;;;;;5026035;28;20037;-69
2023/06/29 10:18:50;;;;;;;11.30;10.20;;;;;;;;;;5023391;28;20041;-69
2023/06/29 10:21:17;;;;;;;10.77;9.50;;;;;;;;;;5043545;28;20770;-69
2023/06/29 10:23:43;;;;;;;9.15;8.25;;;;;;;;;;5031067;28;20045;-69
2023/06/29 10:26:10;;;;;;;12.35;11.18;;;;;;;;;;5026993;28;20307;-69
2023/06/29 10:28:36;;;;;;;11.27;10.18;;;;;;;;;;5028738;28;20041;-69
2023/06/29 10:31:02;;;;;;;13.23;11.90;;;;;;;;;;5021238;28;20044;-69
2023/06/29 10:33:28;;;;;;;11.05;10.00;;;;;;;;;;5028391;28;20466;-69
2023/06/29 10:35:58;;;;;;;11.93;10.75;;;;;;;;;;5030040;28;20052;-69
2023/06/29 10:38:27;;;;;;;11.32;9.75;;;;;;;;;;5024862;28;20518;-69
2023/06/29 10:40:53;;;;;;;9.20;8.30;;;;;;;;;;5023413;28;20041;-69
2023/06/29 10:43:19;;;;;;;8.70;7.93;;;;;;;;;;5032435;28;20123;-69
2023/06/29 10:45:45;;;;;;;7.57;6.90;;;;;;;;;;5029306;28;20044;-68
2023/06/29 10:48:13;;;;;;;9.13;7.55;;;;;;;;;;5034471;28;20043;-69
2023/06/29 10:50:46;;;;;;;8.85;7.30;;;;;;;;;;5033690;28;20052;-69
2023/06/29 10:53:13;;;;;;;7.75;7.05;;;;;;;;;;5034924;28;20041;-69
2023/06/29 10:55:40;;;;;;;8.43;7.63;;;;;;;;;;5036492;28;20045;-69
2023/06/29 10:58:20;;;;;;;10.45;9.38;;;;;;;;;;5036179;28;20087;-69
2023/06/29 11:00:47;;;;;;;9.85;8.82;;;;;;;;;;5038716;28;20452;-69
2023/06/29 11:03:14;;;;;;;11.27;10.13;;;;;;;;;;5036657;28;20393;-69
2023/06/29 11:05:40;;;;;;;14.70;13.20;;;;;;;;;;5043730;28;20626;-69
2023/06/29 11:08:07;;;;;;;15.40;13.80;;;;;;;;;;5040909;28;20452;-69
2023/06/29 11:10:33;;;;;;;14.48;12.82;;;;;;;;;;5033433;28;20521;-69
2023/06/29 11:12:59;;;;;;;14.05;12.60;;;;;;;;;;5037097;28;20544;-69
2023/06/29 11:15:27;;;;;;;16.92;14.85;;;;;;;;;;5035084;28;20512;-70
2023/06/29 11:17:53;;;;;;;19.67;15.48;;;;;;;;;;5033095;28;20049;-70
2023/06/29 11:20:20;;;;;;;17.38;15.55;;;;;;;;;;5033188;28;20041;-70
2023/06/29 11:22:47;;;;;;;17.35;15.65;;;;;;;;;;5037642;28;20056;-70
2023/06/29 11:25:16;;;;;;;17.75;15.98;;;;;;;;;;5027070;28;20178;-70
2023/06/29 11:27:45;;;;;;;19.67;17.58;;;;;;;;;;5032358;28;20084;-70
2023/06/29 11:30:12;;;;;;;16.20;14.32;;;;;;;;;;5029389;28;20040;-70
2023/06/29 11:32:39;;;;;;;18.95;17.05;;;;;;;;;;5037628;28;20037;-70
2023/06/29 11:35:06;;;;;;;15.80;13.82;;;;;;;;;;5034196;28;20421;-70
2023/06/29 11:37:32;;;;;;;17.42;15.65;;;;;;;;;;5027415;28;20116;-69
2023/06/29 11:39:59;;;;;;;23.88;20.83;;;;;;;;;;5028768;28;20049;-70
2023/06/29 11:42:25;;;;;;;21.30;18.63;;;;;;;;;;5033287;28;20044;-69
2023/06/29 11:45:02;;;;;;;22.27;19.85;;;;;;;;;;5031623;28;20052;-69
2023/06/29 11:47:29;;;;;;;27.20;21.13;;;;;;;;;;5035818;28;20045;-69
2023/06/29 11:49:57;;;;;;;17.70;15.80;;;;;;;;;;5034062;28;20047;-69
2023/06/29 11:52:23;;;;;;;21.33;19.08;;;;;;;;;;5035727;28;20045;-69
2023/06/29 11:54:49;;;;;;;18.13;16.15;;;;;;;;;;5039805;28;20341;-69
2023/06/29 11:57:19;;;;;;;20.05;17.83;;;;;;;;;;5034098;28;20037;-69
2023/06/29 11:59:45;;;;;;;22.00;19.70;;;;;;;;;;5013445;28;20461;-70
2023/06/29 12:02:11;;;;;;;19.13;17.13;;;;;;;;;;5031397;28;20053;-70
2023/06/29 12:04:38;;;;;;;23.52;21.13;;;;;;;;;;5034390;28;20057;-70
2023/06/29 12:07:04;;;;;;;20.20;17.17;;;;;;;;;;5029291;28;20095;-70
2023/06/29 12:09:31;;;;;;;22.08;19.77;;;;;;;;;;5040531;28;20037;-70
2023/06/29 12:11:58;;;;;;;18.25;16.42;;;;;;;;;;5036523;28;20091;-70
2023/06/29 12:14:27;;;;;;;21.27;18.98;;;;;;;;;;5049108;28;20037;-70
2023/06/29 12:16:54;;;;;;;21.40;19.13;;;;;;;;;;5033096;28;20053;-70
2023/06/29 12:19:20;;;;;;;21.40;18.90;;;;;;;;;;5042460;28;20383;-70
2023/06/29 12:21:46;;;;;;;21.27;19.05;;;;;;;;;;5047500;28;20041;-70
2023/06/29 12:24:16;;;;;;;18.48;16.55;;;;;;;;;;5028862;28;20049;-70
2023/06/29 12:26:42;;;;;;;17.48;15.75;;;;;;;;;;5033465;28;20457;-67
2023/06/29 12:29:09;;;;;;;16.67;14.90;;;;;;;;;;5032727;28;20041;-69
2023/06/29 12:31:36;;;;;;;21.20;18.65;;;;;;;;;;5036563;28;20055;-69
2023/06/29 12:34:02;;;;;;;19.70;17.48;;;;;;;;;;5027610;28;20284;-69
2023/06/29 12:36:28;;;;;;;15.25;13.75;;;;;;;;;;5037392;28;20087;-69
2023/06/29 12:38:54;;;;;;;23.10;20.00;;;;;;;;;;5023540;28;20057;-69
2023/06/29 12:41:20;;;;;;;17.45;15.52;;;;;;;;;;5033083;28;20112;-69
2023/06/29 12:43:47;;;;;;;19.58;17.58;;;;;;;;;;5038358;28;20080;-69
2023/06/29 12:46:13;;;;;;;26.95;20.92;;;;;;;;;;5035751;28;20041;-69
2023/06/29 12:48:39;;;;;;;17.95;15.98;;;;;;;;;;5039192;28;20211;-69
2023/06/29 12:51:05;;;;;;;26.45;20.13;;;;;;;;;;5032332;28;20041;-69
2023/06/29 12:53:32;;;;;;;23.75;20.10;;;;;;;;;;5027261;28;20071;-69
2023/06/29 12:55:58;;;;;;;20.98;18.77;;;;;;;;;;5027111;28;20053;-69
2023/06/29 12:58:24;;;;;;;22.08;19.77;;;;;;;;;;5032916;28;20044;-69
2023/06/29 13:00:51;;;;;;;19.20;17.10;;;;;;;;;;5034382;28;20060;-69
2023/06/29 13:03:17;;;;;;;21.65;19.33;;;;;;;;;;5036432;28;20451;-69
2023/06/29 13:05:44;;;;;;;18.30;16.27;;;;;;;;;;5037015;28;20041;-69
2023/06/29 13:08:13;;;;;;;21.30;18.60;;;;;;;;;;5039909;28;20124;-70
2023/06/29 13:10:39;;;;;;;19.05;16.55;;;;;;;;;;5039668;28;20049;-70
2023/06/29 13:13:05;;;;;;;17.13;14.77;;;;;;;;;;5034272;28;20071;-70
2023/06/29 13:15:31;;;;;;;13.45;12.02;;;;;;;;;;5044341;28;20123;-70
2023/06/29 13:17:57;;;;;;;18.00;16.10;;;;;;;;;;5037410;28;20047;-70
2023/06/29 13:20:23;;;;;;;17.13;15.07;;;;;;;;;;5043115;28;20041;-70
2023/06/29 13:22:49;;;;;;;21.85;16.20;;;;;;;;;;5039202;28;20045;-70
2023/06/29 13:25:15;;;;;;;26.48;14.60;;;;;;;;;;5029558;28;20029;-70
2023/06/29 13:27:43;;;;;;;14.00;12.10;;;;;;;;;;5032610;28;20046;-70
2023/06/29 13:30:09;;;;;;;10.75;9.73;;;;;;;;;;5036083;28;20040;-70
2023/06/29 13:32:35;;;;;;;13.55;10.25;;;;;;;;;;5040867;28;20043;-70
2023/06/29 13:35:02;;;;;;;9.88;8.93;;;;;;;;;;5043126;28;20095;-70
2023/06/29 13:37:28;;;;;;;11.88;10.30;;;;;;;;;;5043947;28;20043;-70
2023/06/29 13:39:55;;;;;;;10.35;8.73;;;;;;;;;;5045147;28;20041;-70
2023/06/29 13:42:21;;;;;;;13.77;10.95;;;;;;;;;;5029144;28;20447;-70
2023/06/29 13:44:47;;;;;;;12.18;10.95;;;;;;;;;;5033033;28;20049;-70
2023/06/29 13:47:18;;;;;;;11.48;10.05;;;;;;;;;;5038434;28;20118;-70
2023/06/29 13:49:44;;;;;;;11.82;10.57;;;;;;;;;;5031190;28;20045;-70
2023/06/29 13:52:10;;;;;;;13.75;11.43;;;;;;;;;;5034533;28;20049;-70
2023/06/29 13:54:36;;;;;;;14.70;11.85;;;;;;;;;;5043803;28;20045;-70
2023/06/29 13:57:03;;;;;;;14.02;11.43;;;;;;;;;;5031130;28;20128;-70
2023/06/29 13:59:29;;;;;;;11.68;10.48;;;;;;;;;;5024037;28;20124;-70
2023/06/29 14:01:55;;;;;;;10.40;9.40;;;;;;;;;;5037014;28;20124;-70
2023/06/29 14:04:22;;;;;;;10.70;9.70;;;;;;;;;;5038298;28;20042;-71
2023/06/29 14:06:48;;;;;;;10.10;9.20;;;;;;;;;;5040399;28;20041;-71
2023/06/29 14:09:14;;;;;;;10.25;9.25;;;;;;;;;;5034404;28;20398;-70
2023/06/29 14:11:41;;;;;;;10.35;9.35;;;;;;;;;;5041522;28;20505;-70
2023/06/29 14:14:07;;;;;;;9.02;8.13;;;;;;;;;;5038966;28;20033;-70
2023/06/29 14:16:33;;;;;;;8.85;7.95;;;;;;;;;;5031678;28;20041;-70
2023/06/29 14:19:00;;;;;;;8.65;7.85;;;;;;;;;;5032469;28;20034;-70
2023/06/29 14:21:26;;;;;;;9.32;7.90;;;;;;;;;;5035548;28;20044;-70
2023/06/29 14:23:52;;;;;;;7.55;6.82;;;;;;;;;;5035363;28;20040;-70
2023/06/29 14:26:18;;;;;;;8.38;7.57;;;;;;;;;;5041719;28;20111;-70
2023/06/29 14:28:44;;;;;;;11.65;9.52;;;;;;;;;;5040804;28;20049;-70